createdAt,value
2023-02-22T06:08:46.173Z,0.50
2023-02-22T06:09:45.946Z,0.50
2023-02-22T06:10:45.954Z,0.50
2023-02-22T06:11:45.952Z,0.50
2023-02-22T06:12:45.955Z,0.50
2023-02-22T06:13:45.907Z,0.34
2023-02-22T06:14:45.913Z,0.34
2023-02-22T06:15:45.956Z,0.34
2023-02-22T06:16:45.915Z,0.34
2023-02-22T06:17:45.948Z,0.34
2023-02-22T06:18:45.872Z,0.34
2023-02-22T06:19:45.876Z,0.34
2023-02-22T06:20:45.898Z,0.34
2023-02-22T06:21:45.892Z,0.34
2023-02-22T06:22:45.873Z,0.34
2023-02-22T06:23:45.838Z,0.34
2023-02-22T06:24:45.840Z,0.34
2023-02-22T06:25:45.868Z,0.34
2023-02-22T06:26:45.824Z,0.34
2023-02-22T06:27:45.838Z,0.34
2023-02-22T06:28:45.847Z,0.34
2023-02-22T06:29:45.843Z,0.34
2023-02-22T06:30:45.866Z,0.34
2023-02-22T06:31:45.895Z,0.34
2023-02-22T06:32:45.795Z,0.34
2023-02-22T06:33:45.796Z,0.34
2023-02-22T06:34:46.190Z,0.34
2023-02-22T06:35:45.789Z,0.34
2023-02-22T06:36:45.786Z,0.34
2023-02-22T06:37:45.793Z,0.34
2023-02-22T06:38:45.772Z,0.34
2023-02-22T06:39:46.208Z,0.34
2023-02-22T06:40:45.798Z,0.34
2023-02-22T06:41:45.819Z,0.34
2023-02-22T06:42:45.763Z,0.34
2023-02-22T06:43:45.812Z,0.34
2023-02-22T06:44:46.162Z,0.34
2023-02-22T06:45:53.708Z,0.34
2023-02-22T06:46:45.834Z,0.34
2023-02-22T06:47:45.934Z,0.34
2023-02-22T06:48:45.935Z,0.34
2023-02-22T06:49:46.085Z,0.34
2023-02-22T06:50:45.823Z,0.34
2023-02-22T06:51:45.794Z,0.34
2023-02-22T06:52:45.794Z,0.34
2023-02-22T06:53:45.812Z,0.34
2023-02-22T06:54:45.780Z,0.34
2023-02-22T06:55:45.816Z,0.34
2023-02-22T06:56:45.770Z,0.34
2023-02-22T06:57:45.786Z,0.34
2023-02-22T06:58:45.734Z,0.34
2023-02-22T06:59:45.742Z,0.34
2023-02-22T07:00:45.821Z,0.34
2023-02-22T07:01:45.794Z,0.34
2023-02-22T07:02:45.834Z,0.34
2023-02-22T07:03:45.953Z,0.34
2023-02-22T07:04:45.921Z,0.34
2023-02-22T07:05:45.966Z,0.34
2023-02-22T07:06:46.018Z,0.34
2023-02-22T07:07:46.047Z,0.34
2023-02-22T07:08:46.093Z,0.34
2023-02-22T07:09:46.128Z,0.34
2023-02-22T07:10:46.235Z,0.34
2023-02-22T07:11:46.170Z,0.34
2023-02-22T07:12:46.202Z,0.34
2023-02-22T07:13:46.227Z,0.34
2023-02-22T07:14:46.225Z,0.34
2023-02-22T07:15:46.710Z,0.38
2023-02-22T07:16:46.251Z,0.45
2023-02-22T07:17:46.232Z,0.50
2023-02-22T07:18:46.274Z,0.50
2023-02-22T07:19:46.273Z,0.50
2023-02-22T07:20:46.708Z,0.51
2023-02-22T07:21:46.281Z,0.51
2023-02-22T07:22:46.294Z,0.51
2023-02-22T07:23:46.323Z,0.51
2023-02-22T07:24:46.283Z,0.51
2023-02-22T07:25:46.709Z,0.52
2023-02-22T07:26:46.269Z,0.52
2023-02-22T07:27:46.401Z,0.50
2023-02-22T07:28:46.362Z,0.52
2023-02-22T07:29:46.367Z,0.51
2023-02-22T07:30:46.733Z,0.50
2023-02-22T07:31:46.397Z,0.50
2023-02-22T07:32:46.554Z,0.52
2023-02-22T07:33:46.449Z,0.51
2023-02-22T07:34:46.525Z,0.51
2023-02-22T07:35:46.584Z,0.50
2023-02-22T07:36:46.607Z,0.51
2023-02-22T07:37:46.640Z,0.51
2023-02-22T07:38:46.944Z,0.50
2023-02-22T07:39:46.632Z,0.52
2023-02-22T07:40:46.676Z,0.54
2023-02-22T07:41:46.723Z,0.50
2023-02-22T07:42:46.788Z,0.52
2023-02-22T07:43:46.786Z,0.52
2023-02-22T07:44:46.850Z,0.52
2023-02-22T07:45:47.064Z,0.50
2023-02-22T07:46:46.994Z,0.56
2023-02-22T07:47:47.066Z,0.55
2023-02-22T07:48:47.136Z,0.53
2023-02-22T07:49:47.137Z,0.50
2023-02-22T07:50:47.230Z,0.51
2023-02-22T07:51:47.226Z,0.53
2023-02-22T07:52:47.237Z,0.55
2023-02-22T07:53:47.214Z,0.55
2023-02-22T07:54:47.211Z,0.53
2023-02-22T07:55:47.261Z,0.55
2023-02-22T07:56:47.309Z,0.56
2023-02-22T07:57:47.334Z,0.55
2023-02-22T07:58:47.416Z,0.51
2023-02-22T07:59:47.461Z,0.51
2023-02-22T08:00:47.548Z,0.55
2023-02-22T08:01:47.628Z,0.53
2023-02-22T08:02:47.735Z,0.52
2023-02-22T08:03:47.813Z,0.55
2023-02-22T08:04:47.763Z,0.51
2023-02-22T08:05:48.250Z,0.52
2023-02-22T08:06:47.852Z,0.53
2023-02-22T08:07:47.900Z,0.53
2023-02-22T08:08:47.973Z,0.53
2023-02-22T08:09:47.984Z,0.51
2023-02-22T08:10:48.045Z,0.54
2023-02-22T08:11:48.067Z,0.53
2023-02-22T08:12:48.089Z,0.56
2023-02-22T08:13:48.129Z,0.52
2023-02-22T08:14:48.160Z,0.53
2023-02-22T08:15:48.265Z,0.50
2023-02-22T08:16:48.277Z,0.53
2023-02-22T08:17:48.372Z,0.52
2023-02-22T08:18:48.356Z,0.54
2023-02-22T08:19:48.396Z,0.51
2023-02-22T08:20:48.464Z,0.55
2023-02-22T08:21:48.476Z,0.54
2023-02-22T08:22:48.529Z,0.70
2023-02-22T08:23:48.526Z,0.52
2023-02-22T08:24:48.573Z,0.55
2023-02-22T08:25:48.609Z,0.57
2023-02-22T08:26:48.644Z,0.56
2023-02-22T08:27:48.677Z,0.57
2023-02-22T08:28:48.722Z,0.56
2023-02-22T08:29:48.771Z,0.59
2023-02-22T08:30:48.886Z,0.57
2023-02-22T08:31:49.065Z,0.60
2023-02-22T08:32:49.054Z,0.62
2023-02-22T08:33:48.983Z,0.60
2023-02-22T08:34:49.036Z,0.63
2023-02-22T08:35:49.039Z,0.63
2023-02-22T08:36:49.101Z,0.65
2023-02-22T08:37:49.134Z,0.65
2023-02-22T08:38:49.140Z,0.64
2023-02-22T08:39:49.197Z,0.55
2023-02-22T08:40:49.224Z,0.61
2023-02-22T08:41:49.271Z,0.56
2023-02-22T08:42:49.276Z,0.56
2023-02-22T08:43:49.324Z,0.53
2023-02-22T08:44:49.399Z,0.53
2023-02-22T08:45:49.518Z,0.52
2023-02-22T08:46:49.471Z,0.51
2023-02-22T08:47:49.475Z,0.52
2023-02-22T08:48:49.511Z,0.51
2023-02-22T08:49:49.542Z,0.51
2023-02-22T08:50:49.735Z,0.52
2023-02-22T08:51:49.600Z,0.50
2023-02-22T08:52:49.620Z,0.51
2023-02-22T08:53:49.724Z,0.52
2023-02-22T08:54:49.773Z,0.56
2023-02-22T08:55:49.700Z,0.58
2023-02-22T08:56:49.700Z,0.52
2023-02-22T08:57:49.687Z,0.54
2023-02-22T08:58:49.774Z,0.53
2023-02-22T09:00:50.276Z,0.56
2023-02-22T09:01:49.966Z,0.53
2023-02-22T09:02:50.019Z,0.54
2023-02-22T09:03:50.063Z,0.54
2023-02-22T09:04:50.142Z,0.51
2023-02-22T09:05:50.208Z,0.53
2023-02-22T09:06:50.214Z,0.52
2023-02-22T09:07:50.250Z,0.55
2023-02-22T09:08:50.331Z,0.58
2023-02-22T09:09:50.359Z,0.61
2023-02-22T09:10:50.451Z,0.60
2023-02-22T09:11:52.898Z,0.58
2023-02-22T09:12:50.719Z,0.60
2023-02-22T09:13:50.779Z,0.65
2023-02-22T09:14:50.773Z,0.69
2023-02-22T09:15:50.829Z,0.72
2023-02-22T09:16:50.922Z,0.73
2023-02-22T09:17:50.855Z,0.77
2023-02-22T09:18:50.811Z,0.79
2023-02-22T09:19:50.837Z,0.84
2023-02-22T09:20:50.938Z,0.87
2023-02-22T09:21:50.970Z,0.88
2023-02-22T09:22:51.056Z,0.91
2023-02-22T09:23:51.069Z,0.95
2023-02-22T09:24:51.113Z,0.95
2023-02-22T09:25:51.144Z,1.01
2023-02-22T09:26:51.223Z,1.00
2023-02-22T09:27:51.237Z,1.05
2023-02-22T09:28:51.229Z,1.07
2023-02-22T09:29:51.242Z,1.14
2023-02-22T09:30:51.238Z,1.05
2023-02-22T09:31:52.000Z,1.06
2023-02-22T09:32:51.418Z,1.10
2023-02-22T09:33:51.270Z,1.10
2023-02-22T09:34:51.315Z,1.07
2023-02-22T09:35:51.518Z,1.13
2023-02-22T09:36:51.330Z,1.16
2023-02-22T09:37:51.344Z,1.19
2023-02-22T09:38:51.353Z,1.16
2023-02-22T09:39:51.409Z,1.20
2023-02-22T09:40:51.417Z,1.19
2023-02-22T09:41:51.428Z,1.24
2023-02-22T09:42:51.393Z,1.23
2023-02-22T09:43:51.431Z,1.22
2023-02-22T09:44:51.411Z,1.19
2023-02-22T09:45:51.523Z,1.14
2023-02-22T09:46:51.827Z,0.98
2023-02-22T09:47:51.535Z,1.27
2023-02-22T09:48:51.548Z,1.06
2023-02-22T09:49:51.529Z,1.15
2023-02-22T09:50:51.645Z,0.95
2023-02-22T09:51:51.758Z,1.14
2023-02-22T09:52:51.603Z,0.78
2023-02-22T09:53:51.624Z,0.79
2023-02-22T09:54:51.778Z,0.94
2023-02-22T09:55:51.721Z,0.91
2023-02-22T09:56:51.789Z,0.82
2023-02-22T09:57:51.826Z,0.71
2023-02-22T09:58:51.824Z,0.73
2023-02-22T09:59:51.838Z,0.73
2023-02-22T10:00:51.854Z,0.60
2023-02-22T10:01:51.928Z,0.67
2023-02-22T10:02:51.956Z,0.73
2023-02-22T10:03:52.077Z,0.68
2023-02-22T10:04:52.051Z,0.65
2023-02-22T10:05:52.077Z,0.59
2023-02-22T10:06:52.293Z,0.53
2023-02-22T10:07:52.232Z,0.54
2023-02-22T10:08:52.198Z,0.54
2023-02-22T10:09:52.293Z,0.56
2023-02-22T10:10:52.282Z,0.59
2023-02-22T10:11:52.758Z,0.52
2023-02-22T10:12:52.363Z,0.56
2023-02-22T10:13:52.438Z,0.58
2023-02-22T10:14:52.460Z,0.50
2023-02-22T10:15:52.522Z,0.49
2023-02-22T10:16:52.579Z,0.50
2023-02-22T10:17:52.605Z,0.52
2023-02-22T10:18:52.649Z,0.57
2023-02-22T10:19:54.748Z,0.59
2023-02-22T10:20:52.732Z,0.71
2023-02-22T10:21:52.823Z,0.65
2023-02-22T10:22:52.788Z,0.69
2023-02-22T10:23:52.823Z,0.70
2023-02-22T10:24:52.820Z,0.71
2023-02-22T10:25:52.866Z,0.71
2023-02-22T10:26:53.324Z,0.70
2023-02-22T10:27:52.866Z,0.69
2023-02-22T10:28:52.927Z,0.67
2023-02-22T10:29:53.028Z,0.69
2023-02-22T10:30:53.023Z,0.62
2023-02-22T10:31:53.360Z,0.64
2023-02-22T10:32:52.981Z,0.71
2023-02-22T10:33:52.998Z,0.73
2023-02-22T10:34:52.996Z,0.76
2023-02-22T10:35:53.007Z,0.74
2023-02-22T10:36:53.038Z,0.80
2023-02-22T10:37:53.020Z,0.77
2023-02-22T10:38:53.963Z,0.81
2023-02-22T10:39:53.099Z,0.95
2023-02-22T10:40:53.080Z,0.95
2023-02-22T10:41:53.309Z,0.88
2023-02-22T10:42:53.066Z,0.88
2023-02-22T10:43:53.018Z,0.89
2023-02-22T10:44:53.024Z,0.91
2023-02-22T10:45:53.107Z,0.92
2023-02-22T10:46:53.276Z,0.92
2023-02-22T10:47:53.057Z,0.90
2023-02-22T10:48:53.062Z,0.93
2023-02-22T10:49:53.065Z,0.90
2023-02-22T10:50:53.106Z,0.80
2023-02-22T10:51:53.338Z,0.90
2023-02-22T10:52:53.067Z,0.88
2023-02-22T10:53:53.098Z,0.91
2023-02-22T10:54:54.425Z,0.81
2023-02-22T10:55:53.130Z,0.82
2023-02-22T10:56:53.050Z,0.89
2023-02-22T10:57:53.044Z,0.87
2023-02-22T10:58:53.068Z,0.85
2023-02-22T10:59:53.037Z,0.81
2023-02-22T11:00:53.049Z,0.78
2023-02-22T11:01:53.281Z,0.73
2023-02-22T11:02:53.030Z,0.63
2023-02-22T11:03:53.015Z,0.62
2023-02-22T11:04:53.078Z,0.66
2023-02-22T11:05:53.025Z,0.61
2023-02-22T11:06:53.023Z,0.59
2023-02-22T11:07:52.981Z,0.68
2023-02-22T11:08:52.991Z,0.70
2023-02-22T11:09:52.998Z,0.57
2023-02-22T11:10:52.968Z,0.50
2023-02-22T11:11:53.021Z,0.56
2023-02-22T11:12:52.968Z,0.61
2023-02-22T11:13:52.956Z,0.56
2023-02-22T11:14:52.978Z,0.55
2023-02-22T11:15:52.937Z,0.53
2023-02-22T11:16:52.983Z,0.54
2023-02-22T11:17:52.952Z,0.58
2023-02-22T11:18:52.960Z,0.62
2023-02-22T11:19:52.915Z,0.58
2023-02-22T11:20:52.915Z,0.51
2023-02-22T11:21:52.921Z,0.59
2023-02-22T11:22:52.955Z,9.81
2023-02-22T11:23:52.886Z,2.17
2023-02-22T11:24:53.010Z,0.86
2023-02-22T11:25:52.904Z,0.78
2023-02-22T11:26:52.911Z,0.62
2023-02-22T11:27:52.863Z,0.67
2023-02-22T11:28:52.876Z,0.60
2023-02-22T11:29:52.854Z,0.64
2023-02-22T11:30:53.033Z,0.72
2023-02-22T11:31:52.918Z,0.76
2023-02-22T11:32:52.889Z,0.79
2023-02-22T11:33:52.854Z,0.82
2023-02-22T11:35:00.249Z,0.68
2023-02-22T11:35:53.893Z,0.68
2023-02-22T11:36:52.874Z,0.68
2023-02-22T11:37:53.320Z,0.71
2023-02-22T11:38:52.887Z,0.79
2023-02-22T11:39:52.899Z,0.91
2023-02-22T11:40:52.852Z,0.84
2023-02-22T11:41:52.856Z,0.88
2023-02-22T11:42:55.330Z,0.88
2023-02-22T11:43:52.974Z,0.69
2023-02-22T11:44:53.029Z,0.81
2023-02-22T11:45:58.561Z,0.74
2023-02-22T11:46:54.017Z,0.74
2023-02-22T11:47:53.356Z,0.50
2023-02-22T11:48:53.001Z,0.57
2023-02-22T11:49:53.002Z,0.53
2023-02-22T11:50:53.034Z,0.50
2023-02-22T11:51:53.086Z,0.52
2023-02-22T11:52:53.036Z,0.54
2023-02-22T11:53:53.060Z,0.53
2023-02-22T11:54:53.090Z,0.60
2023-02-22T11:55:53.056Z,0.57
2023-02-22T11:56:53.115Z,0.63
2023-02-22T11:57:53.316Z,0.61
2023-02-22T11:58:53.197Z,0.64
2023-02-22T11:59:53.234Z,0.69
2023-02-22T12:00:53.340Z,0.64
2023-02-22T12:01:53.302Z,0.67
2023-02-22T12:02:57.294Z,0.62
2023-02-22T12:03:53.510Z,0.60
2023-02-22T12:04:53.463Z,0.54
2023-02-22T12:05:53.353Z,0.47
2023-02-22T12:06:53.378Z,0.56
2023-02-22T12:07:53.329Z,0.49
2023-02-22T12:08:55.120Z,0.55
2023-02-22T12:09:53.326Z,0.59
2023-02-22T12:10:53.331Z,0.61
2023-02-22T12:11:53.500Z,0.50
2023-02-22T12:12:53.323Z,0.49
2023-02-22T12:13:53.371Z,0.56
2023-02-22T12:14:55.300Z,0.65
2023-02-22T12:15:53.302Z,0.55
2023-02-22T12:16:53.283Z,0.55
2023-02-22T12:18:00.021Z,0.52
2023-02-22T12:18:54.295Z,0.52
2023-02-22T12:19:53.308Z,0.53
2023-02-22T12:20:54.535Z,0.56
2023-02-22T12:21:53.282Z,0.58
2023-02-22T12:22:53.371Z,0.60
2023-02-22T12:23:53.264Z,0.60
2023-02-22T12:25:00.705Z,0.50
2023-02-22T12:25:54.307Z,0.51
2023-02-22T12:26:53.322Z,0.53
2023-02-22T12:27:53.330Z,0.58
2023-02-22T12:28:53.334Z,0.63
2023-02-22T12:29:53.575Z,0.72
2023-02-22T12:30:53.671Z,0.87
2023-02-22T12:31:53.619Z,1.02
2023-02-22T12:32:53.604Z,1.19
2023-02-22T12:33:53.385Z,1.22
2023-02-22T12:34:53.398Z,1.20
2023-02-22T12:35:53.438Z,1.31
2023-02-22T12:36:53.464Z,1.30
2023-02-22T12:37:53.851Z,1.32
2023-02-22T12:38:53.607Z,1.32
2023-02-22T12:39:54.169Z,1.29
2023-02-22T12:40:53.704Z,1.26
2023-02-22T12:41:53.884Z,1.27
2023-02-22T12:42:53.882Z,1.24
2023-02-22T12:43:54.302Z,1.28
2023-02-22T12:44:54.077Z,1.25
2023-02-22T12:45:53.989Z,1.27
2023-02-22T12:46:54.051Z,1.28
2023-02-22T12:47:54.106Z,1.30
2023-02-22T12:48:55.282Z,1.28
2023-02-22T12:49:54.185Z,1.27
2023-02-22T12:50:54.187Z,1.28
2023-02-22T12:51:54.153Z,1.30
2023-02-22T12:52:54.239Z,1.27
2023-02-22T12:53:54.240Z,1.28
2023-02-22T12:54:54.310Z,1.29
2023-02-22T12:55:56.525Z,1.26
2023-02-22T12:56:54.315Z,1.25
2023-02-22T12:57:54.332Z,1.27
2023-02-22T12:58:54.338Z,1.29
2023-02-22T12:59:54.331Z,1.29
2023-02-22T13:00:54.333Z,1.30
2023-02-22T13:01:54.377Z,1.33
2023-02-22T13:02:54.322Z,1.34
2023-02-22T13:03:54.362Z,1.37
2023-02-22T13:04:54.365Z,1.37
2023-02-22T13:05:54.336Z,1.34
2023-02-22T13:06:54.379Z,1.37
2023-02-22T13:07:54.389Z,1.39
2023-02-22T13:08:54.399Z,1.40
2023-02-22T13:09:54.370Z,1.43
2023-02-22T13:10:54.361Z,1.38
2023-02-22T13:11:54.396Z,1.39
2023-02-22T13:12:54.373Z,1.44
2023-02-22T13:13:54.368Z,1.41
2023-02-22T13:14:54.380Z,1.40
2023-02-22T13:15:54.409Z,1.41
2023-02-22T13:16:54.343Z,1.40
2023-02-22T13:17:54.390Z,1.40
2023-02-22T13:18:54.336Z,1.43
2023-02-22T13:19:54.339Z,1.44
2023-02-22T13:20:54.334Z,1.43
2023-02-22T13:21:54.359Z,1.43
2023-02-22T13:22:54.348Z,1.39
2023-02-22T13:23:54.336Z,1.43
2023-02-22T13:24:54.334Z,1.43
2023-02-22T13:25:54.353Z,1.44
2023-02-22T13:26:54.352Z,1.41
2023-02-22T13:27:54.369Z,1.44
2023-02-22T13:28:54.342Z,1.43
2023-02-22T13:29:54.380Z,1.41
2023-02-22T13:30:54.410Z,1.41
2023-02-22T13:31:54.477Z,1.39
2023-02-22T13:32:54.392Z,1.41
2023-02-22T13:33:54.352Z,1.43
2023-02-22T13:34:54.364Z,1.46
2023-02-22T13:35:54.385Z,1.46
2023-02-22T13:36:54.383Z,1.50
2023-02-22T13:37:54.428Z,1.50
2023-02-22T13:38:54.403Z,1.45
2023-02-22T13:39:54.405Z,1.48
2023-02-22T13:40:54.414Z,1.56
2023-02-22T13:41:54.413Z,1.55
2023-02-22T13:42:54.414Z,1.55
2023-02-22T13:43:54.464Z,1.52
2023-02-22T13:44:54.428Z,1.66
2023-02-22T13:45:54.446Z,1.50
2023-02-22T13:46:54.456Z,1.47
2023-02-22T13:47:54.492Z,1.45
2023-02-22T13:48:54.467Z,1.46
2023-02-22T13:49:54.469Z,1.48
2023-02-22T13:50:54.465Z,1.55
2023-02-22T13:51:54.516Z,1.58
2023-02-22T13:52:54.542Z,1.60
2023-02-22T13:53:54.524Z,1.54
2023-02-22T13:54:54.655Z,1.52
2023-02-22T13:55:54.552Z,1.48
2023-02-22T13:56:54.546Z,1.46
2023-02-22T13:57:54.572Z,1.64
2023-02-22T13:58:54.606Z,1.60
2023-02-22T13:59:54.607Z,1.55
2023-02-22T14:00:54.611Z,1.69
2023-02-22T14:01:54.765Z,1.64
2023-02-22T14:02:54.755Z,1.51
2023-02-22T14:03:54.654Z,1.51
2023-02-22T14:04:54.661Z,1.50
2023-02-22T14:05:54.739Z,1.49
2023-02-22T14:06:54.716Z,1.46
2023-02-22T14:07:54.777Z,1.51
2023-02-22T14:08:54.802Z,1.42
2023-02-22T14:09:54.791Z,1.39
2023-02-22T14:10:54.853Z,1.58
2023-02-22T14:11:54.863Z,1.47
2023-02-22T14:12:54.893Z,1.67
2023-02-22T14:13:54.920Z,1.33
2023-02-22T14:14:54.960Z,1.24
2023-02-22T14:15:55.012Z,1.27
2023-02-22T14:16:55.049Z,1.54
2023-02-22T14:17:55.098Z,1.58
2023-02-22T14:18:55.151Z,1.67
2023-02-22T14:19:55.219Z,1.69
2023-02-22T14:20:55.260Z,1.42
2023-02-22T14:21:55.309Z,1.48
2023-02-22T14:22:55.412Z,1.49
2023-02-22T14:23:55.448Z,1.46
2023-02-22T14:24:55.470Z,1.42
2023-02-22T14:25:55.494Z,1.54
2023-02-22T14:26:55.522Z,1.52
2023-02-22T14:27:55.556Z,1.54
2023-02-22T14:28:55.892Z,1.59
2023-02-22T14:29:55.625Z,1.59
2023-02-22T14:30:55.671Z,1.52
2023-02-22T14:31:55.833Z,1.54
2023-02-22T14:32:55.865Z,1.55
2023-02-22T14:33:55.777Z,1.54
2023-02-22T14:34:55.838Z,1.52
2023-02-22T14:35:55.836Z,1.52
2023-02-22T14:36:55.870Z,1.51
2023-02-22T14:37:55.966Z,1.51
2023-02-22T14:38:55.991Z,1.52
2023-02-22T14:39:56.034Z,1.57
2023-02-22T14:40:56.021Z,1.56
2023-02-22T14:41:56.064Z,1.48
2023-02-22T14:42:56.108Z,1.51
2023-02-22T14:43:56.391Z,1.52
2023-02-22T14:44:56.224Z,1.50
2023-02-22T14:45:56.341Z,1.50
2023-02-22T14:46:56.282Z,1.52
2023-02-22T14:47:56.286Z,1.48
2023-02-22T14:48:56.341Z,1.49
2023-02-22T14:49:56.354Z,1.47
2023-02-22T14:50:56.401Z,1.49
2023-02-22T14:51:56.471Z,1.48
2023-02-22T14:52:56.464Z,1.46
2023-02-22T14:53:56.507Z,1.43
2023-02-22T14:54:56.548Z,1.48
2023-02-22T14:55:56.579Z,1.44
2023-02-22T14:56:56.592Z,1.42
2023-02-22T14:57:56.633Z,1.46
2023-02-22T14:58:56.717Z,1.47
2023-02-22T14:59:56.863Z,1.45
2023-02-22T15:00:57.046Z,1.45
2023-02-22T15:02:09.798Z,1.47
2023-02-22T15:02:57.784Z,1.47
2023-02-22T15:04:07.266Z,1.47
2023-02-22T15:04:57.739Z,1.47
2023-02-22T15:05:56.913Z,1.47
2023-02-22T15:06:56.718Z,1.44
2023-02-22T15:07:56.711Z,1.42
2023-02-22T15:08:56.944Z,1.42
2023-02-22T15:09:56.697Z,1.45
2023-02-22T15:10:56.662Z,1.43
2023-02-22T15:11:56.641Z,1.42
2023-02-22T15:12:56.666Z,1.41
2023-02-22T15:13:56.649Z,1.42
2023-02-22T15:14:56.667Z,1.38
2023-02-22T15:15:56.680Z,1.42
2023-02-22T15:16:56.618Z,1.44
2023-02-22T15:17:56.660Z,1.42
2023-02-22T15:18:56.699Z,1.42
2023-02-22T15:19:56.763Z,1.41
2023-02-22T15:20:56.772Z,1.42
2023-02-22T15:21:56.825Z,1.43
2023-02-22T15:22:56.858Z,1.52
2023-02-22T15:23:57.420Z,1.54
2023-02-22T15:24:56.940Z,1.53
2023-02-22T15:25:56.972Z,1.49
2023-02-22T15:27:02.085Z,1.47
2023-02-22T15:27:58.041Z,1.47
2023-02-22T15:28:57.082Z,1.47
2023-02-22T15:29:57.040Z,1.42
2023-02-22T15:30:57.009Z,1.40
2023-02-22T15:31:57.073Z,1.42
2023-02-22T15:33:04.180Z,1.43
2023-02-22T15:33:57.981Z,1.43
2023-02-22T15:34:56.983Z,1.43
2023-02-22T15:35:56.973Z,1.42
2023-02-22T15:36:57.039Z,1.43
2023-02-22T15:37:56.985Z,1.43
2023-02-22T15:38:56.997Z,1.42
2023-02-22T15:39:56.975Z,1.41
2023-02-22T15:40:56.951Z,1.44
2023-02-22T15:41:56.953Z,1.42
2023-02-22T15:42:56.953Z,1.44
2023-02-22T15:43:56.998Z,1.39
2023-02-22T15:44:57.035Z,1.41
2023-02-22T15:45:57.139Z,1.39
2023-02-22T15:46:57.131Z,1.43
2023-02-22T15:47:57.203Z,1.41
2023-02-22T15:48:57.268Z,1.42
2023-02-22T15:49:57.320Z,1.40
2023-02-22T15:50:57.384Z,1.39
2023-02-22T15:51:57.440Z,1.39
2023-02-22T15:52:57.481Z,1.40
2023-02-22T15:53:57.552Z,1.42
2023-02-22T15:54:57.565Z,1.40
2023-02-22T15:55:57.626Z,1.43
2023-02-22T15:56:57.727Z,1.45
2023-02-22T15:57:57.743Z,1.42
2023-02-22T15:58:57.801Z,1.45
2023-02-22T15:59:57.864Z,1.43
2023-02-22T16:00:57.970Z,1.43
2023-02-22T16:01:57.979Z,1.43
2023-02-22T16:02:58.026Z,1.46
2023-02-22T16:03:58.054Z,1.44
2023-02-22T16:04:59.690Z,1.42
2023-02-22T16:05:58.181Z,1.44
2023-02-22T16:06:58.238Z,1.47
2023-02-22T16:07:58.272Z,1.45
2023-02-22T16:08:58.327Z,1.45
2023-02-22T16:09:58.376Z,1.48
2023-02-22T16:10:58.418Z,1.46
2023-02-22T16:11:58.484Z,1.45
2023-02-22T16:12:58.524Z,1.44
2023-02-22T16:13:58.612Z,1.44
2023-02-22T16:14:58.641Z,1.41
2023-02-22T16:15:58.688Z,1.44
2023-02-22T16:16:58.758Z,1.48
2023-02-22T16:18:02.302Z,1.47
2023-02-22T16:18:58.844Z,1.51
2023-02-22T16:19:58.876Z,1.46
2023-02-22T16:20:58.821Z,1.43
2023-02-22T16:21:58.759Z,1.45
2023-02-22T16:22:58.766Z,1.46
2023-02-22T16:24:10.291Z,1.45
2023-02-22T16:24:59.772Z,1.45
2023-02-22T16:25:58.719Z,1.45
2023-02-22T16:26:58.709Z,1.45
2023-02-22T16:27:58.723Z,1.45
2023-02-22T16:28:58.766Z,1.44
2023-02-22T16:29:58.734Z,1.40
2023-02-22T16:30:58.844Z,1.42
2023-02-22T16:31:58.887Z,1.45
2023-02-22T16:32:58.740Z,1.45
2023-02-22T16:33:58.750Z,1.42
2023-02-22T16:34:58.833Z,1.44
2023-02-22T16:35:58.869Z,1.46
2023-02-22T16:36:58.926Z,1.44
2023-02-22T16:37:58.970Z,1.46
2023-02-22T16:38:59.061Z,1.45
2023-02-22T16:39:59.089Z,1.43
2023-02-22T16:40:59.113Z,1.43
2023-02-22T16:41:59.166Z,1.42
2023-02-22T16:42:59.244Z,1.43
2023-02-22T16:43:59.355Z,1.47
2023-02-22T16:44:59.369Z,1.45
2023-02-22T16:45:59.513Z,1.42
2023-02-22T16:46:59.464Z,1.44
2023-02-22T16:47:59.552Z,1.40
2023-02-22T16:48:59.626Z,1.43
2023-02-22T16:49:59.679Z,1.41
2023-02-22T16:50:59.720Z,1.44
2023-02-22T16:51:59.792Z,1.44
2023-02-22T16:52:59.813Z,1.38
2023-02-22T16:53:59.903Z,1.39
2023-02-22T16:54:59.936Z,1.41
2023-02-22T16:56:00.009Z,1.40
2023-02-22T16:57:00.108Z,1.39
2023-02-22T16:58:00.131Z,1.41
2023-02-22T16:59:00.239Z,1.41
2023-02-22T17:00:00.263Z,1.42
2023-02-22T17:01:00.336Z,1.40
2023-02-22T17:02:00.393Z,1.40
2023-02-22T17:03:00.479Z,1.42
2023-02-22T17:04:00.519Z,1.39
2023-02-22T17:05:00.586Z,1.39
2023-02-22T17:06:00.629Z,1.40
2023-02-22T17:07:00.698Z,1.41
2023-02-22T17:08:01.462Z,1.41
2023-02-22T17:09:00.852Z,1.42
2023-02-22T17:10:00.899Z,1.41
2023-02-22T17:11:00.959Z,1.42
2023-02-22T17:12:00.994Z,1.41
2023-02-22T17:13:09.864Z,1.40
2023-02-22T17:14:02.073Z,1.40
2023-02-22T17:15:01.068Z,1.41
2023-02-22T17:16:01.057Z,1.41
2023-02-22T17:17:01.095Z,1.43
2023-02-22T17:18:01.041Z,1.40
2023-02-22T17:19:01.041Z,1.43
2023-02-22T17:20:01.065Z,1.44
2023-02-22T17:21:01.041Z,1.46
2023-02-22T17:22:01.021Z,1.44
2023-02-22T17:23:01.054Z,1.44
2023-02-22T17:24:01.121Z,1.44
2023-02-22T17:25:01.210Z,1.42
2023-02-22T17:26:01.228Z,1.46
2023-02-22T17:27:01.278Z,1.47
2023-02-22T17:28:01.316Z,1.47
2023-02-22T17:29:01.382Z,1.46
2023-02-22T17:30:01.430Z,1.45
2023-02-22T17:31:02.238Z,1.41
2023-02-22T17:32:01.583Z,1.44
2023-02-22T17:33:01.629Z,1.44
2023-02-22T17:34:01.669Z,1.44
2023-02-22T17:35:01.735Z,1.46
2023-02-22T17:36:01.840Z,1.45
2023-02-22T17:37:01.880Z,1.44
2023-02-22T17:38:01.943Z,1.44
2023-02-22T17:39:02.061Z,1.47
2023-02-22T17:40:02.109Z,1.46
2023-02-22T17:41:02.115Z,1.44
2023-02-22T17:42:02.136Z,1.44
2023-02-22T17:43:02.242Z,1.45
2023-02-22T17:44:02.272Z,1.39
2023-02-22T17:45:02.323Z,1.44
2023-02-22T17:46:02.456Z,1.41
2023-02-22T17:47:02.412Z,1.46
2023-02-22T17:48:02.461Z,1.45
2023-02-22T17:49:02.551Z,1.40
2023-02-22T17:50:02.582Z,1.43
2023-02-22T17:51:02.588Z,1.41
2023-02-22T17:52:02.609Z,1.41
2023-02-22T17:53:02.793Z,1.43
2023-02-22T17:54:02.650Z,1.42
2023-02-22T17:55:02.714Z,1.42
2023-02-22T17:56:02.714Z,1.43
2023-02-22T17:57:02.745Z,1.41
2023-02-22T17:58:02.790Z,1.38
2023-02-22T18:01:02.874Z,1.42
2023-02-22T18:02:02.960Z,1.40
2023-02-22T18:03:03.021Z,1.41
2023-02-22T18:04:02.994Z,1.44
2023-02-22T18:05:03.031Z,1.43
2023-02-22T18:06:03.154Z,1.42
2023-02-22T18:07:03.092Z,1.41
2023-02-22T18:08:03.109Z,1.42
2023-02-22T18:09:03.164Z,1.42
2023-02-22T18:10:03.161Z,1.39
2023-02-22T18:11:03.198Z,1.41
2023-02-22T18:12:03.190Z,1.43
2023-02-22T18:13:03.220Z,1.40
2023-02-22T18:14:03.276Z,1.43
2023-02-22T18:15:03.279Z,1.45
2023-02-22T18:16:03.346Z,1.43
2023-02-22T18:17:03.316Z,1.42
2023-02-22T18:18:03.336Z,1.43
2023-02-22T18:19:03.315Z,1.41
2023-02-22T18:20:03.348Z,1.44
2023-02-22T18:21:03.368Z,1.43
2023-02-22T18:22:03.344Z,1.43
2023-02-22T18:23:03.356Z,1.43
2023-02-22T18:24:03.334Z,1.43
2023-02-22T18:25:03.377Z,1.41
2023-02-22T18:26:11.006Z,1.42
2023-02-22T18:27:04.357Z,1.42
2023-02-22T18:28:03.405Z,1.42
2023-02-22T18:29:03.370Z,1.42
2023-02-22T18:30:03.357Z,1.43
2023-02-22T18:31:03.388Z,1.43
2023-02-22T18:32:03.386Z,1.43
2023-02-22T18:33:03.330Z,1.41
2023-02-22T18:34:03.329Z,1.42
2023-02-22T18:35:03.331Z,1.43
2023-02-22T18:36:03.347Z,1.43
2023-02-22T18:37:03.324Z,1.45
2023-02-22T18:38:03.321Z,1.41
2023-02-22T18:39:03.323Z,1.44
2023-02-22T18:40:03.270Z,1.44
2023-02-22T18:41:03.300Z,1.44
2023-02-22T18:42:03.286Z,1.43
2023-02-22T18:43:03.316Z,1.44
2023-02-22T18:44:03.265Z,1.44
2023-02-22T18:45:03.272Z,1.42
2023-02-22T18:46:03.284Z,1.44
2023-02-22T18:47:03.267Z,1.43
2023-02-22T18:48:03.277Z,1.43
2023-02-22T18:49:03.267Z,1.45
2023-02-22T18:50:03.269Z,1.44
2023-02-22T18:51:03.251Z,1.41
2023-02-22T18:52:03.267Z,1.45
2023-02-22T18:53:03.241Z,1.43
2023-02-22T18:54:03.224Z,1.44
2023-02-22T18:55:03.244Z,1.43
2023-02-22T18:56:03.216Z,1.44
2023-02-22T18:57:03.289Z,1.43
2023-02-22T18:58:03.225Z,1.42
2023-02-22T18:59:03.203Z,1.42
2023-02-22T19:00:03.185Z,1.45
2023-02-22T19:01:03.198Z,1.43
2023-02-22T19:02:03.227Z,1.43
2023-02-22T19:03:03.165Z,1.44
2023-02-22T19:04:03.158Z,1.42
2023-02-22T19:05:03.149Z,1.43
2023-02-22T19:06:03.140Z,1.45
2023-02-22T19:07:03.178Z,1.42
2023-02-22T19:08:03.148Z,1.41
2023-02-22T19:09:03.154Z,1.42
2023-02-22T19:10:03.157Z,1.43
2023-02-22T19:11:03.126Z,1.44
2023-02-22T19:12:03.136Z,1.40
2023-02-22T19:13:03.117Z,1.40
2023-02-22T19:14:03.117Z,1.41
2023-02-22T19:15:03.135Z,1.40
2023-02-22T19:16:03.182Z,1.42
2023-02-22T19:17:03.095Z,1.41
2023-02-22T19:18:03.108Z,1.41
2023-02-22T19:19:03.195Z,1.42
2023-02-22T19:20:03.126Z,1.42
2023-02-22T19:21:03.087Z,1.41
2023-02-22T19:22:03.138Z,1.41
2023-02-22T19:23:03.131Z,1.41
2023-02-22T19:24:03.096Z,1.41
2023-02-22T19:25:03.096Z,1.42
2023-02-22T19:26:03.118Z,1.40
2023-02-22T19:27:03.107Z,1.41
2023-02-22T19:28:03.120Z,1.41
2023-02-22T19:29:03.103Z,1.42
2023-02-22T19:30:03.132Z,1.41